CheckWX is a tool to help pilots better visualize weather data.  It is not intended as a substitute for an official pre-flight weather briefing.

06:00:53 UTC

KTMK METAR
Tillamook Airport
Tillamook, Oregon, USA
Current

26 mins ago

KTMK 200535Z AUTO 11003KT 1/2SM FG 07/07 A3012 RMK AO2 P0001
Observed
Oct-20 @ 05:35 UTC
Wind
  • 110° at 3 KTS
Visibility
1/2 SM
Conditions
Fog
Temperature
C / 45°F
Dewpoint
C / 45°F
Humidity
100%
Altimeter
30.12" Hg
Pressure
1020.02 hPa
Current Rain
0.01"
Previous

46 mins ago

KTMK 200515Z AUTO 20005KT 4SM BR 07/06 A3012 RMK AO2
Observed
Oct-20 @ 05:15 UTC
Wind
  • 200° at 5 KTS
Visibility
4 SM
Conditions
Mist
Temperature
C / 45°F
Dewpoint
C / 43°F
Humidity
93%
Altimeter
30.12" Hg
Pressure
1020.02 hPa
Previous

1 hour ago

KTMK 200455Z AUTO 00000KT 10SM 08/07 A3011 RMK AO2
Observed
Oct-20 @ 04:55 UTC
Visibility
10 SM
Temperature
C / 46°F
Dewpoint
C / 45°F
Humidity
93%
Altimeter
30.11" Hg
Pressure
1019.62 hPa